Aviation Digital Data Service (ADDS)

Output produced by METARs form (2013 UTC 20 August 2019)
found at http://www.aviationweather.gov/metar/data/
 
METAR text: LRTR 202000Z 04005KT CAVOK 25/14 Q1018 NOSIG
Conditions at: LRTR (TIMISOARA/GIARMA, RO) observed 2000 UTC 20 August 2019
Temperature: 25.0°C (77°F)
Dewpoint: 14.0°C (57°F) [RH = 50%]
Pressure (altimeter): 30.06 inches Hg (1018.0 mb)
Winds: from the NE (40 degrees) at 6 MPH (5 knots; 2.6 m/s)
Visibility: 6 or more miles (10+ km)
Ceiling: ceiling and visibility are OK
Clouds: unknown
Weather: no significant weather observed at this time

METAR text: LRTR 201930Z 03006KT CAVOK 25/14 Q1018 NOSIG
Conditions at: LRTR (TIMISOARA/GIARMA, RO) observed 1930 UTC 20 August 2019
Temperature: 25.0°C (77°F)
Dewpoint: 14.0°C (57°F) [RH = 50%]
Pressure (altimeter): 30.06 inches Hg (1018.0 mb)
Winds: from the NNE (30 degrees) at 7 MPH (6 knots; 3.1 m/s)
Visibility: 6 or more miles (10+ km)
Ceiling: ceiling and visibility are OK
Clouds: unknown
Weather: no significant weather observed at this time

METAR text: LRTR 201900Z 03005KT 330V070 CAVOK 24/15 Q1018 NOSIG
Conditions at: LRTR (TIMISOARA/GIARMA, RO) observed 1900 UTC 20 August 2019
Temperature: 24.0°C (75°F)
Dewpoint: 15.0°C (59°F) [RH = 57%]
Pressure (altimeter): 30.06 inches Hg (1018.0 mb)
Winds: from the NNE (30 degrees) at 6 MPH (5 knots; 2.6 m/s)
Visibility: 6 or more miles (10+ km)
Ceiling: ceiling and visibility are OK
Clouds: unknown
Weather: no significant weather observed at this time

METAR text: LRTR 201830Z 09004KT CAVOK 27/15 Q1018 NOSIG
Conditions at: LRTR (TIMISOARA/GIARMA, RO) observed 1830 UTC 20 August 2019
Temperature: 27.0°C (81°F)
Dewpoint: 15.0°C (59°F) [RH = 48%]
Pressure (altimeter): 30.06 inches Hg (1018.0 mb)
Winds: from the E (90 degrees) at 5 MPH (4 knots; 2.1 m/s)
Visibility: 6 or more miles (10+ km)
Ceiling: ceiling and visibility are OK
Clouds: unknown
Weather: no significant weather observed at this time

METAR text: LRTR 201800Z 12004KT CAVOK 28/15 Q1018 NOSIG
Conditions at: LRTR (TIMISOARA/GIARMA, RO) observed 1800 UTC 20 August 2019
Temperature: 28.0°C (82°F)
Dewpoint: 15.0°C (59°F) [RH = 45%]
Pressure (altimeter): 30.06 inches Hg (1018.0 mb)
Winds: from the ESE (120 degrees) at 5 MPH (4 knots; 2.1 m/s)
Visibility: 6 or more miles (10+ km)
Ceiling: ceiling and visibility are OK
Clouds: unknown
Weather: no significant weather observed at this time

METAR text: LRTR 201730Z 12003KT CAVOK 30/14 Q1018 NOSIG
Conditions at: LRTR (TIMISOARA/GIARMA, RO) observed 1730 UTC 20 August 2019
Temperature: 30.0°C (86°F)
Dewpoint: 14.0°C (57°F) [RH = 38%]
Pressure (altimeter): 30.06 inches Hg (1018.0 mb)
Winds: from the ESE (120 degrees) at 3 MPH (3 knots; 1.5 m/s)
Visibility: 6 or more miles (10+ km)
Ceiling: ceiling and visibility are OK
Clouds: unknown
Weather: no significant weather observed at this time

METAR text: LRTR 201700Z 12004KT CAVOK 31/14 Q1018 NOSIG
Conditions at: LRTR (TIMISOARA/GIARMA, RO) observed 1700 UTC 20 August 2019
Temperature: 31.0°C (88°F)
Dewpoint: 14.0°C (57°F) [RH = 36%]
Pressure (altimeter): 30.06 inches Hg (1018.0 mb)
Winds: from the ESE (120 degrees) at 5 MPH (4 knots; 2.1 m/s)
Visibility: 6 or more miles (10+ km)
Ceiling: ceiling and visibility are OK
Clouds: unknown
Weather: no significant weather observed at this time

METAR text: LRTR 201630Z 11005KT CAVOK 32/14 Q1018 NOSIG
Conditions at: LRTR (TIMISOARA/GIARMA, RO) observed 1630 UTC 20 August 2019
Temperature: 32.0°C (90°F)
Dewpoint: 14.0°C (57°F) [RH = 34%]
Pressure (altimeter): 30.06 inches Hg (1018.0 mb)
Winds: from the ESE (110 degrees) at 6 MPH (5 knots; 2.6 m/s)
Visibility: 6 or more miles (10+ km)
Ceiling: ceiling and visibility are OK
Clouds: unknown
Weather: no significant weather observed at this time

METAR text: LRTR 201600Z VRB02KT CAVOK 33/12 Q1018
Conditions at: LRTR (TIMISOARA/GIARMA, RO) observed 1600 UTC 20 August 2019
Temperature: 33.0°C (91°F)
Dewpoint: 12.0°C (54°F) [RH = 28%]
Pressure (altimeter): 30.06 inches Hg (1018.0 mb)
Winds: variable direction winds at 2 MPH (2 knots; 1.0 m/s)
Visibility: 6 or more miles (10+ km)
Ceiling: ceiling and visibility are OK
Clouds: unknown
Weather: no significant weather observed at this time

METAR text: LRTR 201530Z 10004KT 040V150 CAVOK 34/12 Q1018
Conditions at: LRTR (TIMISOARA/GIARMA, RO) observed 1530 UTC 20 August 2019
Temperature: 34.0°C (93°F)
Dewpoint: 12.0°C (54°F) [RH = 26%]
Pressure (altimeter): 30.06 inches Hg (1018.0 mb)
Winds: from the E (100 degrees) at 5 MPH (4 knots; 2.1 m/s)
Visibility: 6 or more miles (10+ km)
Ceiling: ceiling and visibility are OK
Clouds: unknown
Weather: no significant weather observed at this time

METAR text: LRTR 201500Z 10004KT 070V130 CAVOK 34/13 Q1018
Conditions at: LRTR (TIMISOARA/GIARMA, RO) observed 1500 UTC 20 August 2019
Temperature: 34.0°C (93°F)
Dewpoint: 13.0°C (55°F) [RH = 28%]
Pressure (altimeter): 30.06 inches Hg (1018.0 mb)
Winds: from the E (100 degrees) at 5 MPH (4 knots; 2.1 m/s)
Visibility: 6 or more miles (10+ km)
Ceiling: ceiling and visibility are OK
Clouds: unknown
Weather: no significant weather observed at this time

METAR text: LRTR 201430Z VRB03KT CAVOK 35/12 Q1018
Conditions at: LRTR (TIMISOARA/GIARMA, RO) observed 1430 UTC 20 August 2019
Temperature: 35.0°C (95°F)
Dewpoint: 12.0°C (54°F) [RH = 25%]
Pressure (altimeter): 30.06 inches Hg (1018.0 mb)
Winds: variable direction winds at 3 MPH (3 knots; 1.5 m/s)
Visibility: 6 or more miles (10+ km)
Ceiling: ceiling and visibility are OK
Clouds: unknown
Weather: no significant weather observed at this time

METAR text: LRTR 201400Z 14003KT 090V170 CAVOK 34/12 Q1018
Conditions at: LRTR (TIMISOARA/GIARMA, RO) observed 1400 UTC 20 August 2019
Temperature: 34.0°C (93°F)
Dewpoint: 12.0°C (54°F) [RH = 26%]
Pressure (altimeter): 30.06 inches Hg (1018.0 mb)
Winds: from the SE (140 degrees) at 3 MPH (3 knots; 1.5 m/s)
Visibility: 6 or more miles (10+ km)
Ceiling: ceiling and visibility are OK
Clouds: unknown
Weather: no significant weather observed at this time

METAR text: LRTR 201330Z VRB03KT CAVOK 35/12 Q1018
Conditions at: LRTR (TIMISOARA/GIARMA, RO) observed 1330 UTC 20 August 2019
Temperature: 35.0°C (95°F)
Dewpoint: 12.0°C (54°F) [RH = 25%]
Pressure (altimeter): 30.06 inches Hg (1018.0 mb)
Winds: variable direction winds at 3 MPH (3 knots; 1.5 m/s)
Visibility: 6 or more miles (10+ km)
Ceiling: ceiling and visibility are OK
Clouds: unknown
Weather: no significant weather observed at this time

METAR text: LRTR 201300Z 26005KT 220V300 CAVOK 34/12 Q1018
Conditions at: LRTR (TIMISOARA/GIARMA, RO) observed 1300 UTC 20 August 2019
Temperature: 34.0°C (93°F)
Dewpoint: 12.0°C (54°F) [RH = 26%]
Pressure (altimeter): 30.06 inches Hg (1018.0 mb)
Winds: from the W (260 degrees) at 6 MPH (5 knots; 2.6 m/s)
Visibility: 6 or more miles (10+ km)
Ceiling: ceiling and visibility are OK
Clouds: unknown
Weather: no significant weather observed at this time

METAR text: LRTR 201230Z 18006KT 140V210 CAVOK 35/13 Q1018
Conditions at: LRTR (TIMISOARA/GIARMA, RO) observed 1230 UTC 20 August 2019
Temperature: 35.0°C (95°F)
Dewpoint: 13.0°C (55°F) [RH = 27%]
Pressure (altimeter): 30.06 inches Hg (1018.0 mb)
Winds: from the S (180 degrees) at 7 MPH (6 knots; 3.1 m/s)
Visibility: 6 or more miles (10+ km)
Ceiling: ceiling and visibility are OK
Clouds: unknown
Weather: no significant weather observed at this time

METAR text: LRTR 201200Z VRB02KT CAVOK 35/13 Q1018
Conditions at: LRTR (TIMISOARA/GIARMA, RO) observed 1200 UTC 20 August 2019
Temperature: 35.0°C (95°F)
Dewpoint: 13.0°C (55°F) [RH = 27%]
Pressure (altimeter): 30.06 inches Hg (1018.0 mb)
Winds: variable direction winds at 2 MPH (2 knots; 1.0 m/s)
Visibility: 6 or more miles (10+ km)
Ceiling: ceiling and visibility are OK
Clouds: unknown
Weather: no significant weather observed at this time

METAR text: LRTR 201130Z 15005KT 120V180 CAVOK 33/13 Q1019
Conditions at: LRTR (TIMISOARA/GIARMA, RO) observed 1130 UTC 20 August 2019
Temperature: 33.0°C (91°F)
Dewpoint: 13.0°C (55°F) [RH = 30%]
Pressure (altimeter): 30.09 inches Hg (1019.0 mb)
Winds: from the SSE (150 degrees) at 6 MPH (5 knots; 2.6 m/s)
Visibility: 6 or more miles (10+ km)
Ceiling: ceiling and visibility are OK
Clouds: unknown
Weather: no significant weather observed at this time

METAR text: LRTR 201100Z 09005KT 040V160 CAVOK 34/13 Q1019
Conditions at: LRTR (TIMISOARA/GIARMA, RO) observed 1100 UTC 20 August 2019
Temperature: 34.0°C (93°F)
Dewpoint: 13.0°C (55°F) [RH = 28%]
Pressure (altimeter): 30.09 inches Hg (1019.0 mb)
Winds: from the E (90 degrees) at 6 MPH (5 knots; 2.6 m/s)
Visibility: 6 or more miles (10+ km)
Ceiling: ceiling and visibility are OK
Clouds: unknown
Weather: no significant weather observed at this time

METAR text: LRTR 201030Z VRB04KT CAVOK 33/14 Q1019
Conditions at: LRTR (TIMISOARA/GIARMA, RO) observed 1030 UTC 20 August 2019
Temperature: 33.0°C (91°F)
Dewpoint: 14.0°C (57°F) [RH = 32%]
Pressure (altimeter): 30.09 inches Hg (1019.0 mb)
Winds: variable direction winds at 5 MPH (4 knots; 2.1 m/s)
Visibility: 6 or more miles (10+ km)
Ceiling: ceiling and visibility are OK
Clouds: unknown
Weather: no significant weather observed at this time

METAR text: LRTR 201000Z 22005KT 180V330 CAVOK 32/14 Q1019
Conditions at: LRTR (TIMISOARA/GIARMA, RO) observed 1000 UTC 20 August 2019
Temperature: 32.0°C (90°F)
Dewpoint: 14.0°C (57°F) [RH = 34%]
Pressure (altimeter): 30.09 inches Hg (1019.0 mb)
Winds: from the SW (220 degrees) at 6 MPH (5 knots; 2.6 m/s)
Visibility: 6 or more miles (10+ km)
Ceiling: ceiling and visibility are OK
Clouds: unknown
Weather: no significant weather observed at this time

METAR text: LRTR 200930Z 15004KT 050V200 CAVOK 31/15 Q1019
Conditions at: LRTR (TIMISOARA/GIARMA, RO) observed 0930 UTC 20 August 2019
Temperature: 31.0°C (88°F)
Dewpoint: 15.0°C (59°F) [RH = 38%]
Pressure (altimeter): 30.09 inches Hg (1019.0 mb)
Winds: from the SSE (150 degrees) at 5 MPH (4 knots; 2.1 m/s)
Visibility: 6 or more miles (10+ km)
Ceiling: ceiling and visibility are OK
Clouds: unknown
Weather: no significant weather observed at this time

METAR text: LRTR 200900Z 16005KT 130V190 CAVOK 30/15 Q1019
Conditions at: LRTR (TIMISOARA/GIARMA, RO) observed 0900 UTC 20 August 2019
Temperature: 30.0°C (86°F)
Dewpoint: 15.0°C (59°F) [RH = 40%]
Pressure (altimeter): 30.09 inches Hg (1019.0 mb)
Winds: from the SSE (160 degrees) at 6 MPH (5 knots; 2.6 m/s)
Visibility: 6 or more miles (10+ km)
Ceiling: ceiling and visibility are OK
Clouds: unknown
Weather: no significant weather observed at this time

METAR text: LRTR 200830Z 14006KT 080V230 CAVOK 30/15 Q1019
Conditions at: LRTR (TIMISOARA/GIARMA, RO) observed 0830 UTC 20 August 2019
Temperature: 30.0°C (86°F)
Dewpoint: 15.0°C (59°F) [RH = 40%]
Pressure (altimeter): 30.09 inches Hg (1019.0 mb)
Winds: from the SE (140 degrees) at 7 MPH (6 knots; 3.1 m/s)
Visibility: 6 or more miles (10+ km)
Ceiling: ceiling and visibility are OK
Clouds: unknown
Weather: no significant weather observed at this time

METAR text: LRTR 200800Z 11006KT 080V140 CAVOK 29/16 Q1019
Conditions at: LRTR (TIMISOARA/GIARMA, RO) observed 0800 UTC 20 August 2019
Temperature: 29.0°C (84°F)
Dewpoint: 16.0°C (61°F) [RH = 45%]
Pressure (altimeter): 30.09 inches Hg (1019.0 mb)
Winds: from the ESE (110 degrees) at 7 MPH (6 knots; 3.1 m/s)
Visibility: 6 or more miles (10+ km)
Ceiling: ceiling and visibility are OK
Clouds: unknown
Weather: no significant weather observed at this time

METAR text: LRTR 200730Z 11007KT CAVOK 27/17 Q1019
Conditions at: LRTR (TIMISOARA/GIARMA, RO) observed 0730 UTC 20 August 2019
Temperature: 27.0°C (81°F)
Dewpoint: 17.0°C (63°F) [RH = 54%]
Pressure (altimeter): 30.09 inches Hg (1019.0 mb)
Winds: from the ESE (110 degrees) at 8 MPH (7 knots; 3.6 m/s)
Visibility: 6 or more miles (10+ km)
Ceiling: ceiling and visibility are OK
Clouds: unknown
Weather: no significant weather observed at this time

METAR text: LRTR 200700Z 11008KT CAVOK 26/17 Q1019
Conditions at: LRTR (TIMISOARA/GIARMA, RO) observed 0700 UTC 20 August 2019
Temperature: 26.0°C (79°F)
Dewpoint: 17.0°C (63°F) [RH = 58%]
Pressure (altimeter): 30.09 inches Hg (1019.0 mb)
Winds: from the ESE (110 degrees) at 9 MPH (8 knots; 4.1 m/s)
Visibility: 6 or more miles (10+ km)
Ceiling: ceiling and visibility are OK
Clouds: unknown
Weather: no significant weather observed at this time

METAR text: LRTR 200630Z 11010KT CAVOK 24/18 Q1019
Conditions at: LRTR (TIMISOARA/GIARMA, RO) observed 0630 UTC 20 August 2019
Temperature: 24.0°C (75°F)
Dewpoint: 18.0°C (64°F) [RH = 69%]
Pressure (altimeter): 30.09 inches Hg (1019.0 mb)
Winds: from the ESE (110 degrees) at 12 MPH (10 knots; 5.1 m/s)
Visibility: 6 or more miles (10+ km)
Ceiling: ceiling and visibility are OK
Clouds: unknown
Weather: no significant weather observed at this time

METAR text: LRTR 200600Z 11010KT CAVOK 23/17 Q1019
Conditions at: LRTR (TIMISOARA/GIARMA, RO) observed 0600 UTC 20 August 2019
Temperature: 23.0°C (73°F)
Dewpoint: 17.0°C (63°F) [RH = 69%]
Pressure (altimeter): 30.09 inches Hg (1019.0 mb)
Winds: from the ESE (110 degrees) at 12 MPH (10 knots; 5.1 m/s)
Visibility: 6 or more miles (10+ km)
Ceiling: ceiling and visibility are OK
Clouds: unknown
Weather: no significant weather observed at this time

METAR text: LRTR 200530Z 11008KT CAVOK 22/18 Q1019
Conditions at: LRTR (TIMISOARA/GIARMA, RO) observed 0530 UTC 20 August 2019
Temperature: 22.0°C (72°F)
Dewpoint: 18.0°C (64°F) [RH = 78%]
Pressure (altimeter): 30.09 inches Hg (1019.0 mb)
Winds: from the ESE (110 degrees) at 9 MPH (8 knots; 4.1 m/s)
Visibility: 6 or more miles (10+ km)
Ceiling: ceiling and visibility are OK
Clouds: unknown
Weather: no significant weather observed at this time

METAR text: LRTR 200500Z 11007KT CAVOK 20/18 Q1019
Conditions at: LRTR (TIMISOARA/GIARMA, RO) observed 0500 UTC 20 August 2019
Temperature: 20.0°C (68°F)
Dewpoint: 18.0°C (64°F) [RH = 88%]
Pressure (altimeter): 30.09 inches Hg (1019.0 mb)
Winds: from the ESE (110 degrees) at 8 MPH (7 knots; 3.6 m/s)
Visibility: 6 or more miles (10+ km)
Ceiling: ceiling and visibility are OK
Clouds: unknown
Weather: no significant weather observed at this time

METAR text: LRTR 200430Z 10005KT CAVOK 18/17 Q1019
Conditions at: LRTR (TIMISOARA/GIARMA, RO) observed 0430 UTC 20 August 2019
Temperature: 18.0°C (64°F)
Dewpoint: 17.0°C (63°F) [RH = 94%]
Pressure (altimeter): 30.09 inches Hg (1019.0 mb)
Winds: from the E (100 degrees) at 6 MPH (5 knots; 2.6 m/s)
Visibility: 6 or more miles (10+ km)
Ceiling: ceiling and visibility are OK
Clouds: unknown
Weather: no significant weather observed at this time

METAR text: LRTR 200400Z 11007KT CAVOK 17/16 Q1019 NOSIG
Conditions at: LRTR (TIMISOARA/GIARMA, RO) observed 0400 UTC 20 August 2019
Temperature: 17.0°C (63°F)
Dewpoint: 16.0°C (61°F) [RH = 94%]
Pressure (altimeter): 30.09 inches Hg (1019.0 mb)
Winds: from the ESE (110 degrees) at 8 MPH (7 knots; 3.6 m/s)
Visibility: 6 or more miles (10+ km)
Ceiling: ceiling and visibility are OK
Clouds: unknown
Weather: no significant weather observed at this time

METAR text: LRTR 200330Z 10007KT CAVOK 17/16 Q1018 NOSIG
Conditions at: LRTR (TIMISOARA/GIARMA, RO) observed 0330 UTC 20 August 2019
Temperature: 17.0°C (63°F)
Dewpoint: 16.0°C (61°F) [RH = 94%]
Pressure (altimeter): 30.06 inches Hg (1018.0 mb)
Winds: from the E (100 degrees) at 8 MPH (7 knots; 3.6 m/s)
Visibility: 6 or more miles (10+ km)
Ceiling: ceiling and visibility are OK
Clouds: unknown
Weather: no significant weather observed at this time

METAR text: LRTR 200300Z 09006KT CAVOK 17/16 Q1018 NOSIG
Conditions at: LRTR (TIMISOARA/GIARMA, RO) observed 0300 UTC 20 August 2019
Temperature: 17.0°C (63°F)
Dewpoint: 16.0°C (61°F) [RH = 94%]
Pressure (altimeter): 30.06 inches Hg (1018.0 mb)
Winds: from the E (90 degrees) at 7 MPH (6 knots; 3.1 m/s)
Visibility: 6 or more miles (10+ km)
Ceiling: ceiling and visibility are OK
Clouds: unknown
Weather: no significant weather observed at this time

METAR text: LRTR 200230Z 10006KT CAVOK 16/16 Q1018 NOSIG
Conditions at: LRTR (TIMISOARA/GIARMA, RO) observed 0230 UTC 20 August 2019
Temperature: 16.0°C (61°F)
Dewpoint: 16.0°C (61°F) [RH = 100%]
Pressure (altimeter): 30.06 inches Hg (1018.0 mb)
Winds: from the E (100 degrees) at 7 MPH (6 knots; 3.1 m/s)
Visibility: 6 or more miles (10+ km)
Ceiling: ceiling and visibility are OK
Clouds: unknown
Weather: no significant weather observed at this time

METAR text: LRTR 200200Z 09007KT CAVOK 17/16 Q1018 NOSIG
Conditions at: LRTR (TIMISOARA/GIARMA, RO) observed 0200 UTC 20 August 2019
Temperature: 17.0°C (63°F)
Dewpoint: 16.0°C (61°F) [RH = 94%]
Pressure (altimeter): 30.06 inches Hg (1018.0 mb)
Winds: from the E (90 degrees) at 8 MPH (7 knots; 3.6 m/s)
Visibility: 6 or more miles (10+ km)
Ceiling: ceiling and visibility are OK
Clouds: unknown
Weather: no significant weather observed at this time

METAR text: LRTR 200130Z 10006KT CAVOK 18/16 Q1018 NOSIG
Conditions at: LRTR (TIMISOARA/GIARMA, RO) observed 0130 UTC 20 August 2019
Temperature: 18.0°C (64°F)
Dewpoint: 16.0°C (61°F) [RH = 88%]
Pressure (altimeter): 30.06 inches Hg (1018.0 mb)
Winds: from the E (100 degrees) at 7 MPH (6 knots; 3.1 m/s)
Visibility: 6 or more miles (10+ km)
Ceiling: ceiling and visibility are OK
Clouds: unknown
Weather: no significant weather observed at this time

METAR text: LRTR 200100Z 10006KT CAVOK 18/16 Q1018 NOSIG
Conditions at: LRTR (TIMISOARA/GIARMA, RO) observed 0100 UTC 20 August 2019
Temperature: 18.0°C (64°F)
Dewpoint: 16.0°C (61°F) [RH = 88%]
Pressure (altimeter): 30.06 inches Hg (1018.0 mb)
Winds: from the E (100 degrees) at 7 MPH (6 knots; 3.1 m/s)
Visibility: 6 or more miles (10+ km)
Ceiling: ceiling and visibility are OK
Clouds: unknown
Weather: no significant weather observed at this time

METAR text: LRTR 200030Z 10007KT CAVOK 18/16 Q1018 NOSIG
Conditions at: LRTR (TIMISOARA/GIARMA, RO) observed 0030 UTC 20 August 2019
Temperature: 18.0°C (64°F)
Dewpoint: 16.0°C (61°F) [RH = 88%]
Pressure (altimeter): 30.06 inches Hg (1018.0 mb)
Winds: from the E (100 degrees) at 8 MPH (7 knots; 3.6 m/s)
Visibility: 6 or more miles (10+ km)
Ceiling: ceiling and visibility are OK
Clouds: unknown
Weather: no significant weather observed at this time

METAR text: LRTR 200000Z 10006KT CAVOK 19/16 Q1018 NOSIG
Conditions at: LRTR (TIMISOARA/GIARMA, RO) observed 0000 UTC 20 August 2019
Temperature: 19.0°C (66°F)
Dewpoint: 16.0°C (61°F) [RH = 83%]
Pressure (altimeter): 30.06 inches Hg (1018.0 mb)
Winds: from the E (100 degrees) at 7 MPH (6 knots; 3.1 m/s)
Visibility: 6 or more miles (10+ km)
Ceiling: ceiling and visibility are OK
Clouds: unknown
Weather: no significant weather observed at this time

METAR text: LRTR 192330Z 08007KT CAVOK 19/16 Q1018 NOSIG
Conditions at: LRTR (TIMISOARA/GIARMA, RO) observed 2330 UTC 19 August 2019
Temperature: 19.0°C (66°F)
Dewpoint: 16.0°C (61°F) [RH = 83%]
Pressure (altimeter): 30.06 inches Hg (1018.0 mb)
Winds: from the E (80 degrees) at 8 MPH (7 knots; 3.6 m/s)
Visibility: 6 or more miles (10+ km)
Ceiling: ceiling and visibility are OK
Clouds: unknown
Weather: no significant weather observed at this time

METAR text: LRTR 192300Z 08008KT CAVOK 20/16 Q1017 NOSIG
Conditions at: LRTR (TIMISOARA/GIARMA, RO) observed 2300 UTC 19 August 2019
Temperature: 20.0°C (68°F)
Dewpoint: 16.0°C (61°F) [RH = 78%]
Pressure (altimeter): 30.03 inches Hg (1017.0 mb)
Winds: from the E (80 degrees) at 9 MPH (8 knots; 4.1 m/s)
Visibility: 6 or more miles (10+ km)
Ceiling: ceiling and visibility are OK
Clouds: unknown
Weather: no significant weather observed at this time

METAR text: LRTR 192230Z 09008KT CAVOK 19/16 Q1018 NOSIG
Conditions at: LRTR (TIMISOARA/GIARMA, RO) observed 2230 UTC 19 August 2019
Temperature: 19.0°C (66°F)
Dewpoint: 16.0°C (61°F) [RH = 83%]
Pressure (altimeter): 30.06 inches Hg (1018.0 mb)
Winds: from the E (90 degrees) at 9 MPH (8 knots; 4.1 m/s)
Visibility: 6 or more miles (10+ km)
Ceiling: ceiling and visibility are OK
Clouds: unknown
Weather: no significant weather observed at this time

METAR text: LRTR 192200Z 10006KT CAVOK 19/16 Q1018 NOSIG
Conditions at: LRTR (TIMISOARA/GIARMA, RO) observed 2200 UTC 19 August 2019
Temperature: 19.0°C (66°F)
Dewpoint: 16.0°C (61°F) [RH = 83%]
Pressure (altimeter): 30.06 inches Hg (1018.0 mb)
Winds: from the E (100 degrees) at 7 MPH (6 knots; 3.1 m/s)
Visibility: 6 or more miles (10+ km)
Ceiling: ceiling and visibility are OK
Clouds: unknown
Weather: no significant weather observed at this time

METAR text: LRTR 192130Z 10005KT CAVOK 20/16 Q1017 NOSIG
Conditions at: LRTR (TIMISOARA/GIARMA, RO) observed 2130 UTC 19 August 2019
Temperature: 20.0°C (68°F)
Dewpoint: 16.0°C (61°F) [RH = 78%]
Pressure (altimeter): 30.03 inches Hg (1017.0 mb)
Winds: from the E (100 degrees) at 6 MPH (5 knots; 2.6 m/s)
Visibility: 6 or more miles (10+ km)
Ceiling: ceiling and visibility are OK
Clouds: unknown
Weather: no significant weather observed at this time

METAR text: LRTR 192100Z 09005KT CAVOK 20/16 Q1017 NOSIG
Conditions at: LRTR (TIMISOARA/GIARMA, RO) observed 2100 UTC 19 August 2019
Temperature: 20.0°C (68°F)
Dewpoint: 16.0°C (61°F) [RH = 78%]
Pressure (altimeter): 30.03 inches Hg (1017.0 mb)
Winds: from the E (90 degrees) at 6 MPH (5 knots; 2.6 m/s)
Visibility: 6 or more miles (10+ km)
Ceiling: ceiling and visibility are OK
Clouds: unknown
Weather: no significant weather observed at this time

METAR text: LRTR 192030Z 09003KT CAVOK 22/15 Q1017 NOSIG
Conditions at: LRTR (TIMISOARA/GIARMA, RO) observed 2030 UTC 19 August 2019
Temperature: 22.0°C (72°F)
Dewpoint: 15.0°C (59°F) [RH = 65%]
Pressure (altimeter): 30.03 inches Hg (1017.0 mb)
Winds: from the E (90 degrees) at 3 MPH (3 knots; 1.5 m/s)
Visibility: 6 or more miles (10+ km)
Ceiling: ceiling and visibility are OK
Clouds: unknown
Weather: no significant weather observed at this time

METAR text: LRTR 192000Z 00000KT CAVOK 23/15 Q1017 NOSIG
Conditions at: LRTR (TIMISOARA/GIARMA, RO) observed 2000 UTC 19 August 2019
Temperature: 23.0°C (73°F)
Dewpoint: 15.0°C (59°F) [RH = 61%]
Pressure (altimeter): 30.03 inches Hg (1017.0 mb)
Winds: calm
Visibility: 6 or more miles (10+ km)
Ceiling: ceiling and visibility are OK
Clouds: unknown
Weather: no significant weather observed at this time

METAR text: LRTR 191930Z 01004KT 310V050 CAVOK 24/16 Q1017 NOSIG
Conditions at: LRTR (TIMISOARA/GIARMA, RO) observed 1930 UTC 19 August 2019
Temperature: 24.0°C (75°F)
Dewpoint: 16.0°C (61°F) [RH = 61%]
Pressure (altimeter): 30.03 inches Hg (1017.0 mb)
Winds: from the N (10 degrees) at 5 MPH (4 knots; 2.1 m/s)
Visibility: 6 or more miles (10+ km)
Ceiling: ceiling and visibility are OK
Clouds: unknown
Weather: no significant weather observed at this time

METAR text: LRTR 191900Z 09004KT CAVOK 24/14 Q1017 NOSIG
Conditions at: LRTR (TIMISOARA/GIARMA, RO) observed 1900 UTC 19 August 2019
Temperature: 24.0°C (75°F)
Dewpoint: 14.0°C (57°F) [RH = 54%]
Pressure (altimeter): 30.03 inches Hg (1017.0 mb)
Winds: from the E (90 degrees) at 5 MPH (4 knots; 2.1 m/s)
Visibility: 6 or more miles (10+ km)
Ceiling: ceiling and visibility are OK
Clouds: unknown
Weather: no significant weather observed at this time

METAR text: LRTR 191830Z 10004KT CAVOK 25/15 Q1017 NOSIG
Conditions at: LRTR (TIMISOARA/GIARMA, RO) observed 1830 UTC 19 August 2019
Temperature: 25.0°C (77°F)
Dewpoint: 15.0°C (59°F) [RH = 54%]
Pressure (altimeter): 30.03 inches Hg (1017.0 mb)
Winds: from the E (100 degrees) at 5 MPH (4 knots; 2.1 m/s)
Visibility: 6 or more miles (10+ km)
Ceiling: ceiling and visibility are OK
Clouds: unknown
Weather: no significant weather observed at this time

METAR text: LRTR 191800Z 00000KT CAVOK 29/14 Q1017 NOSIG
Conditions at: LRTR (TIMISOARA/GIARMA, RO) observed 1800 UTC 19 August 2019
Temperature: 29.0°C (84°F)
Dewpoint: 14.0°C (57°F) [RH = 40%]
Pressure (altimeter): 30.03 inches Hg (1017.0 mb)
Winds: calm
Visibility: 6 or more miles (10+ km)
Ceiling: ceiling and visibility are OK
Clouds: unknown
Weather: no significant weather observed at this time

METAR text: LRTR 191730Z 00000KT CAVOK 30/14 Q1016 NOSIG
Conditions at: LRTR (TIMISOARA/GIARMA, RO) observed 1730 UTC 19 August 2019
Temperature: 30.0°C (86°F)
Dewpoint: 14.0°C (57°F) [RH = 38%]
Pressure (altimeter): 30.00 inches Hg (1016.0 mb)
Winds: calm
Visibility: 6 or more miles (10+ km)
Ceiling: ceiling and visibility are OK
Clouds: unknown
Weather: no significant weather observed at this time

METAR text: LRTR 191700Z 14004KT CAVOK 31/15 Q1016 NOSIG
Conditions at: LRTR (TIMISOARA/GIARMA, RO) observed 1700 UTC 19 August 2019
Temperature: 31.0°C (88°F)
Dewpoint: 15.0°C (59°F) [RH = 38%]
Pressure (altimeter): 30.00 inches Hg (1016.0 mb)
Winds: from the SE (140 degrees) at 5 MPH (4 knots; 2.1 m/s)
Visibility: 6 or more miles (10+ km)
Ceiling: ceiling and visibility are OK
Clouds: unknown
Weather: no significant weather observed at this time

METAR text: LRTR 191630Z 10003KT CAVOK 32/14 Q1016 NOSIG
Conditions at: LRTR (TIMISOARA/GIARMA, RO) observed 1630 UTC 19 August 2019
Temperature: 32.0°C (90°F)
Dewpoint: 14.0°C (57°F) [RH = 34%]
Pressure (altimeter): 30.00 inches Hg (1016.0 mb)
Winds: from the E (100 degrees) at 3 MPH (3 knots; 1.5 m/s)
Visibility: 6 or more miles (10+ km)
Ceiling: ceiling and visibility are OK
Clouds: unknown
Weather: no significant weather observed at this time

METAR text: LRTR 191600Z VRB02KT CAVOK 33/13 Q1016 NOSIG
Conditions at: LRTR (TIMISOARA/GIARMA, RO) observed 1600 UTC 19 August 2019
Temperature: 33.0°C (91°F)
Dewpoint: 13.0°C (55°F) [RH = 30%]
Pressure (altimeter): 30.00 inches Hg (1016.0 mb)
Winds: variable direction winds at 2 MPH (2 knots; 1.0 m/s)
Visibility: 6 or more miles (10+ km)
Ceiling: ceiling and visibility are OK
Clouds: unknown
Weather: no significant weather observed at this time

METAR text: LRTR 191530Z VRB02KT CAVOK 33/13 Q1016 NOSIG
Conditions at: LRTR (TIMISOARA/GIARMA, RO) observed 1530 UTC 19 August 2019
Temperature: 33.0°C (91°F)
Dewpoint: 13.0°C (55°F) [RH = 30%]
Pressure (altimeter): 30.00 inches Hg (1016.0 mb)
Winds: variable direction winds at 2 MPH (2 knots; 1.0 m/s)
Visibility: 6 or more miles (10+ km)
Ceiling: ceiling and visibility are OK
Clouds: unknown
Weather: no significant weather observed at this time

METAR text: LRTR 191500Z 13004KT 080V170 CAVOK 33/11 Q1016 NOSIG
Conditions at: LRTR (TIMISOARA/GIARMA, RO) observed 1500 UTC 19 August 2019
Temperature: 33.0°C (91°F)
Dewpoint: 11.0°C (52°F) [RH = 26%]
Pressure (altimeter): 30.00 inches Hg (1016.0 mb)
Winds: from the SE (130 degrees) at 5 MPH (4 knots; 2.1 m/s)
Visibility: 6 or more miles (10+ km)
Ceiling: ceiling and visibility are OK
Clouds: unknown
Weather: no significant weather observed at this time

METAR text: LRTR 191430Z 07007KT CAVOK 33/12 Q1016 NOSIG
Conditions at: LRTR (TIMISOARA/GIARMA, RO) observed 1430 UTC 19 August 2019
Temperature: 33.0°C (91°F)
Dewpoint: 12.0°C (54°F) [RH = 28%]
Pressure (altimeter): 30.00 inches Hg (1016.0 mb)
Winds: from the ENE (70 degrees) at 8 MPH (7 knots; 3.6 m/s)
Visibility: 6 or more miles (10+ km)
Ceiling: ceiling and visibility are OK
Clouds: unknown
Weather: no significant weather observed at this time

METAR text: LRTR 191400Z 07003KT 360V120 CAVOK 33/12 Q1016 NOSIG
Conditions at: LRTR (TIMISOARA/GIARMA, RO) observed 1400 UTC 19 August 2019
Temperature: 33.0°C (91°F)
Dewpoint: 12.0°C (54°F) [RH = 28%]
Pressure (altimeter): 30.00 inches Hg (1016.0 mb)
Winds: from the ENE (70 degrees) at 3 MPH (3 knots; 1.5 m/s)
Visibility: 6 or more miles (10+ km)
Ceiling: ceiling and visibility are OK
Clouds: unknown
Weather: no significant weather observed at this time

METAR text: LRTR 191330Z VRB03KT CAVOK 33/12 Q1017 NOSIG
Conditions at: LRTR (TIMISOARA/GIARMA, RO) observed 1330 UTC 19 August 2019
Temperature: 33.0°C (91°F)
Dewpoint: 12.0°C (54°F) [RH = 28%]
Pressure (altimeter): 30.03 inches Hg (1017.0 mb)
Winds: variable direction winds at 3 MPH (3 knots; 1.5 m/s)
Visibility: 6 or more miles (10+ km)
Ceiling: ceiling and visibility are OK
Clouds: unknown
Weather: no significant weather observed at this time

METAR text: LRTR 191300Z 14005KT 110V170 CAVOK 33/11 Q1017 NOSIG
Conditions at: LRTR (TIMISOARA/GIARMA, RO) observed 1300 UTC 19 August 2019
Temperature: 33.0°C (91°F)
Dewpoint: 11.0°C (52°F) [RH = 26%]
Pressure (altimeter): 30.03 inches Hg (1017.0 mb)
Winds: from the SE (140 degrees) at 6 MPH (5 knots; 2.6 m/s)
Visibility: 6 or more miles (10+ km)
Ceiling: ceiling and visibility are OK
Clouds: unknown
Weather: no significant weather observed at this time

METAR text: LRTR 191230Z VRB04KT CAVOK 32/11 Q1017 NOSIG
Conditions at: LRTR (TIMISOARA/GIARMA, RO) observed 1230 UTC 19 August 2019
Temperature: 32.0°C (90°F)
Dewpoint: 11.0°C (52°F) [RH = 28%]
Pressure (altimeter): 30.03 inches Hg (1017.0 mb)
Winds: variable direction winds at 5 MPH (4 knots; 2.1 m/s)
Visibility: 6 or more miles (10+ km)
Ceiling: ceiling and visibility are OK
Clouds: unknown
Weather: no significant weather observed at this time

METAR text: LRTR 191200Z VRB04KT CAVOK 33/12 Q1017 NOSIG
Conditions at: LRTR (TIMISOARA/GIARMA, RO) observed 1200 UTC 19 August 2019
Temperature: 33.0°C (91°F)
Dewpoint: 12.0°C (54°F) [RH = 28%]
Pressure (altimeter): 30.03 inches Hg (1017.0 mb)
Winds: variable direction winds at 5 MPH (4 knots; 2.1 m/s)
Visibility: 6 or more miles (10+ km)
Ceiling: ceiling and visibility are OK
Clouds: unknown
Weather: no significant weather observed at this time

METAR text: LRTR 191130Z 11005KT 020V170 CAVOK 32/10 Q1017 NOSIG
Conditions at: LRTR (TIMISOARA/GIARMA, RO) observed 1130 UTC 19 August 2019
Temperature: 32.0°C (90°F)
Dewpoint: 10.0°C (50°F) [RH = 26%]
Pressure (altimeter): 30.03 inches Hg (1017.0 mb)
Winds: from the ESE (110 degrees) at 6 MPH (5 knots; 2.6 m/s)
Visibility: 6 or more miles (10+ km)
Ceiling: ceiling and visibility are OK
Clouds: unknown
Weather: no significant weather observed at this time

METAR text: LRTR 191100Z 12007KT 060V130 CAVOK 32/09 Q1017 NOSIG
Conditions at: LRTR (TIMISOARA/GIARMA, RO) observed 1100 UTC 19 August 2019
Temperature: 32.0°C (90°F)
Dewpoint: 9.0°C (48°F) [RH = 24%]
Pressure (altimeter): 30.03 inches Hg (1017.0 mb)
Winds: from the ESE (120 degrees) at 8 MPH (7 knots; 3.6 m/s)
Visibility: 6 or more miles (10+ km)
Ceiling: ceiling and visibility are OK
Clouds: unknown
Weather: no significant weather observed at this time

METAR text: LRTR 191030Z 14006KT 080V200 CAVOK 32/11 Q1017 NOSIG
Conditions at: LRTR (TIMISOARA/GIARMA, RO) observed 1030 UTC 19 August 2019
Temperature: 32.0°C (90°F)
Dewpoint: 11.0°C (52°F) [RH = 28%]
Pressure (altimeter): 30.03 inches Hg (1017.0 mb)
Winds: from the SE (140 degrees) at 7 MPH (6 knots; 3.1 m/s)
Visibility: 6 or more miles (10+ km)
Ceiling: ceiling and visibility are OK
Clouds: unknown
Weather: no significant weather observed at this time

METAR text: LRTR 191000Z 12007KT 080V160 CAVOK 31/11 Q1017 NOSIG
Conditions at: LRTR (TIMISOARA/GIARMA, RO) observed 1000 UTC 19 August 2019
Temperature: 31.0°C (88°F)
Dewpoint: 11.0°C (52°F) [RH = 29%]
Pressure (altimeter): 30.03 inches Hg (1017.0 mb)
Winds: from the ESE (120 degrees) at 8 MPH (7 knots; 3.6 m/s)
Visibility: 6 or more miles (10+ km)
Ceiling: ceiling and visibility are OK
Clouds: unknown
Weather: no significant weather observed at this time

METAR text: LRTR 190930Z 13007KT 090V160 CAVOK 30/12 Q1017 NOSIG
Conditions at: LRTR (TIMISOARA/GIARMA, RO) observed 0930 UTC 19 August 2019
Temperature: 30.0°C (86°F)
Dewpoint: 12.0°C (54°F) [RH = 33%]
Pressure (altimeter): 30.03 inches Hg (1017.0 mb)
Winds: from the SE (130 degrees) at 8 MPH (7 knots; 3.6 m/s)
Visibility: 6 or more miles (10+ km)
Ceiling: ceiling and visibility are OK
Clouds: unknown
Weather: no significant weather observed at this time

METAR text: LRTR 190900Z 12009KT CAVOK 29/11 Q1017 NOSIG
Conditions at: LRTR (TIMISOARA/GIARMA, RO) observed 0900 UTC 19 August 2019
Temperature: 29.0°C (84°F)
Dewpoint: 11.0°C (52°F) [RH = 33%]
Pressure (altimeter): 30.03 inches Hg (1017.0 mb)
Winds: from the ESE (120 degrees) at 10 MPH (9 knots; 4.6 m/s)
Visibility: 6 or more miles (10+ km)
Ceiling: ceiling and visibility are OK
Clouds: unknown
Weather: no significant weather observed at this time

METAR text: LRTR 190830Z 12008KT CAVOK 27/14 Q1017 NOSIG
Conditions at: LRTR (TIMISOARA/GIARMA, RO) observed 0830 UTC 19 August 2019
Temperature: 27.0°C (81°F)
Dewpoint: 14.0°C (57°F) [RH = 45%]
Pressure (altimeter): 30.03 inches Hg (1017.0 mb)
Winds: from the ESE (120 degrees) at 9 MPH (8 knots; 4.1 m/s)
Visibility: 6 or more miles (10+ km)
Ceiling: ceiling and visibility are OK
Clouds: unknown
Weather: no significant weather observed at this time

Forecast for: LRTR (TIMISOARA/GIARMA, RO)
Text: TAF LRTR 201700Z 2018/2118 12005KT CAVOK
Forecast period: 1800 UTC 20 August 2019 to 1800 UTC 21 August 2019
Forecast type: FROM: standard forecast or significant change
Winds: from the ESE (120 degrees) at 6 MPH (5 knots; 2.6 m/s)
Visibility: 6 or more miles 10+ km)
Ceiling: unknown
Clouds: missing
Weather: NSW  (no significant weather)